Map

Track Data

SID SEASON NUMBER BASIN SUBBASIN NAME ISO_TIME NATURE LAT LON WMO_WIND WMO_PRES WMO_AGENCY TRACK_TYPE DIST2LAND LANDFALL IFLAG USA_AGENCY USA_ATCF_ID USA_LAT USA_LON USA_RECORD USA_STATUS USA_WIND USA_PRES USA_SSHS USA_R34_NE USA_R34_SE USA_R34_SW USA_R34_NW USA_R50_NE USA_R50_SE USA_R50_SW USA_R50_NW USA_R64_NE USA_R64_SE USA_R64_SW USA_R64_NW USA_POCI USA_ROCI USA_RMW USA_EYE TOKYO_LAT TOKYO_LON TOKYO_GRADE TOKYO_WIND TOKYO_PRES TOKYO_R50_DIR TOKYO_R50_LONG TOKYO_R50_SHORT TOKYO_R30_DIR TOKYO_R30_LONG TOKYO_R30_SHORT TOKYO_LAND CMA_LAT CMA_LON CMA_CAT CMA_WIND CMA_PRES HKO_LAT HKO_LON HKO_CAT HKO_WIND HKO_PRES NEWDELHI_LAT NEWDELHI_LON NEWDELHI_GRADE NEWDELHI_WIND NEWDELHI_PRES NEWDELHI_CI NEWDELHI_DP NEWDELHI_POCI REUNION_LAT REUNION_LON REUNION_TYPE REUNION_WIND REUNION_PRES REUNION_TNUM REUNION_CI REUNION_RMW REUNION_R34_NE REUNION_R34_SE REUNION_R34_SW REUNION_R34_NW REUNION_R50_NE REUNION_R50_SE REUNION_R50_SW REUNION_R50_NW REUNION_R64_NE REUNION_R64_SE REUNION_R64_SW REUNION_R64_NW BOM_LAT BOM_LON BOM_TYPE BOM_WIND BOM_PRES BOM_TNUM BOM_CI BOM_RMW BOM_R34_NE BOM_R34_SE BOM_R34_SW BOM_R34_NW BOM_R50_NE BOM_R50_SE BOM_R50_SW BOM_R50_NW BOM_R64_NE BOM_R64_SE BOM_R64_SW BOM_R64_NW BOM_ROCI BOM_POCI BOM_EYE BOM_POS_METHOD BOM_PRES_METHOD NADI_LAT NADI_LON NADI_CAT NADI_WIND NADI_PRES WELLINGTON_LAT WELLINGTON_LON WELLINGTON_WIND WELLINGTON_PRES DS824_LAT DS824_LON DS824_STAGE DS824_WIND DS824_PRES TD9636_LAT TD9636_LON TD9636_STAGE TD9636_WIND TD9636_PRES TD9635_LAT TD9635_LON TD9635_WIND TD9635_PRES TD9635_ROCI NEUMANN_LAT NEUMANN_LON NEUMANN_CLASS NEUMANN_WIND NEUMANN_PRES MLC_LAT MLC_LON MLC_CLASS MLC_WIND MLC_PRES USA_GUST BOM_GUST BOM_GUST_PER REUNION_GUST REUNION_GUST_PER USA_SEAHGT USA_SEARAD_NE USA_SEARAD_SE USA_SEARAD_SW USA_SEARAD_NW STORM_SPEED STORM_DIR
1959209N16115 1959 52 WP MM NOT_NAMED 1959-07-28 00:00:00 TS 15.8000 114.700 main 535 524 __O___________ -1 15.8000 114.700 0 17 1004 9 269
1959209N16115 1959 52 WP MM NOT_NAMED 1959-07-28 03:00:00 TS 15.7902 114.247 main 516 485 __P___________ -1 15.7902 114.247 0 17 1002 9 270
1959209N16115 1959 52 WP MM NOT_NAMED 1959-07-28 06:00:00 TS 15.8000 113.800 main 485 454 __O___________ -1 15.8000 113.800 0 17 1001 8 274
1959209N16115 1959 52 WP MM NOT_NAMED 1959-07-28 09:00:00 TS 15.8550 113.370 main 446 409 __P___________ -1 15.8550 113.370 0 17 1000 8 285
1959209N16115 1959 52 WP MM NOT_NAMED 1959-07-28 12:00:00 TS 16.0000 113.000 main 409 371 __O___________ -1 16.0000 113.000 0 17 1000 7 304
1959209N16115 1959 52 WP MM NOT_NAMED 1959-07-28 15:00:00 TS 16.2624 112.735 main 362 323 __P___________ -1 16.2624 112.735 0 17 1000 8 321
1959209N16115 1959 52 WP MM NOT_NAMED 1959-07-28 18:00:00 TS 16.6000 112.500 main 323 277 __O___________ -1 16.6000 112.500 0 17 1000 8 324
1959209N16115 1959 52 WP MM NOT_NAMED 1959-07-28 21:00:00 TS 16.9274 112.222 main 277 222 __P___________ -1 16.9274 112.222 0 20 1000 9 321
1959209N16115 1959 52 WP MM NOT_NAMED 1959-07-29 00:00:00 TS 17.3000 111.900 main 222 169 __O___________ -1 17.3000 111.900 1 23 1000 10 320
1959209N16115 1959 52 WP MM NOT_NAMED 1959-07-29 03:00:00 TS 17.7199 111.537 main 161 92 __P___________ -1 17.7199 111.537 1 26 999 12 320
1959209N16115 1959 52 WP MM NOT_NAMED 1959-07-29 06:00:00 TS 18.2000 111.100 main 92 15 __O___________ -1 18.2000 111.100 1 29 998 14 319
1959209N16115 1959 52 WP MM NOT_NAMED 1959-07-29 09:00:00 TS 18.7648 110.595 main 10 0 __P___________ -1 18.7648 110.595 1 24 999 15 317
1959209N16115 1959 52 WP MM NOT_NAMED 1959-07-29 12:00:00 TS 19.3000 110.000 main 0 0 __O___________ -1 19.3000 110.000 0 19 1000 15 308
1959209N16115 1959 52 WP MM NOT_NAMED 1959-07-29 15:00:00 TS 19.6950 109.315 main 0 0 __P___________ -1 19.6950 109.315 0 21 1000 15 298
1959209N16115 1959 52 WP MM NOT_NAMED 1959-07-29 18:00:00 TS 20.0000 108.600 main 64 64 __O___________ -1 20.0000 108.600 1 23 1000 14 294
1959209N16115 1959 52 WP MM NOT_NAMED 1959-07-29 21:00:00 TS 20.2723 107.927 main 93 45 __P___________ -1 20.2723 107.927 1 23 1000 13 292
1959209N16115 1959 52 WP MM NOT_NAMED 1959-07-30 00:00:00 TS 20.5000 107.300 main 45 0 __O___________ -1 20.5000 107.300 1 23 1000 12 292
1959209N16115 1959 52 WP MM NOT_NAMED 1959-07-30 03:00:00 TS 20.7146 106.742 main 0 0 __P___________ -1 20.7146 106.742 1 23 1000 11 291
1959209N16115 1959 52 WP MM NOT_NAMED 1959-07-30 06:00:00 TS 20.9000 106.200 main 0 0 __O___________ -1 20.9000 106.200 1 23 1001 11 288
1959209N16115 1959 52 WP MM NOT_NAMED 1959-07-30 09:00:00 TS 21.0574 105.607 main 0 0 __P___________ -1 21.0574 105.607 1 1002 12 285
1959209N16115 1959 52 WP MM NOT_NAMED 1959-07-30 12:00:00 TS 21.2000 105.000 main 0 0 __O___________ -1 21.2000 105.000 0 1003 12 284
1959209N16115 1959 52 WP MM NOT_NAMED 1959-07-30 15:00:00 TS 21.3479 104.398 main 0 0 __P___________ -1 21.3479 104.398 0 1003 12 285
1959209N16115 1959 52 WP MM NOT_NAMED 1959-07-30 18:00:00 TS 21.5000 103.800 main 0 __O___________ -1 21.5000 103.800 0 1003 12 285

Digital Typhoon Data and Search

About IBTrACS Database

This database is a web-friendly format of International Best Track Archive for Climate Stewardship (IBTrACS), a global best track data archive curated by NOAA dating back to 1842.

Updated: 2021-10-21